sensor_id;sensor_type;location;lat;lon;timestamp;pressure;altitude;pressure_sealevel;temperature;humidity
11124;BME280;5616;42.692;23.312;2023-03-22T00:00:44;94784.66;;;10.23;98.82
11124;BME280;5616;42.692;23.312;2023-03-22T00:03:11;94788.97;;;10.16;98.48
11124;BME280;5616;42.692;23.312;2023-03-22T00:05:37;94760.75;;;10.14;98.29
11124;BME280;5616;42.692;23.312;2023-03-22T00:08:05;94783.22;;;10.41;98.84
11124;BME280;5616;42.692;23.312;2023-03-22T00:10:35;94784.69;;;10.51;97.75
11124;BME280;5616;42.692;23.312;2023-03-22T00:13:03;94787.31;;;10.57;98.74
11124;BME280;5616;42.692;23.312;2023-03-22T00:15:31;94786.88;;;10.54;99.08
11124;BME280;5616;42.692;23.312;2023-03-22T00:17:59;94785.88;;;10.48;99.46
11124;BME280;5616;42.692;23.312;2023-03-22T00:20:26;94779.44;;;10.37;99.63
11124;BME280;5616;42.692;23.312;2023-03-22T00:22:54;94785.06;;;10.48;99.39
11124;BME280;5616;42.692;23.312;2023-03-22T00:25:22;94770.13;;;10.43;99.28
11124;BME280;5616;42.692;23.312;2023-03-22T00:27:50;94782.41;;;10.41;99.55
11124;BME280;5616;42.692;23.312;2023-03-22T00:30:17;94784.81;;;10.42;100.00
11124;BME280;5616;42.692;23.312;2023-03-22T00:32:44;94785.38;;;10.38;100.00
11124;BME280;5616;42.692;23.312;2023-03-22T00:35:12;94773.47;;;10.37;99.60
11124;BME280;5616;42.692;23.312;2023-03-22T00:37:39;94783.41;;;10.40;99.90
11124;BME280;5616;42.692;23.312;2023-03-22T00:40:10;94776.09;;;10.43;99.93
11124;BME280;5616;42.692;23.312;2023-03-22T00:42:37;94770.19;;;10.50;100.00
11124;BME280;5616;42.692;23.312;2023-03-22T00:45:08;94771.22;;;10.55;100.00
11124;BME280;5616;42.692;23.312;2023-03-22T00:47:35;94766.56;;;10.44;100.00
11124;BME280;5616;42.692;23.312;2023-03-22T00:50:04;94769.38;;;10.49;100.00
11124;BME280;5616;42.692;23.312;2023-03-22T00:52:31;94769.44;;;10.56;99.17
11124;BME280;5616;42.692;23.312;2023-03-22T00:54:58;94763.53;;;10.40;99.78
11124;BME280;5616;42.692;23.312;2023-03-22T00:57:25;94767.06;;;10.33;100.00
11124;BME280;5616;42.692;23.312;2023-03-22T00:59:54;94765.63;;;10.24;100.00
11124;BME280;5616;42.692;23.312;2023-03-22T01:02:25;94765.19;;;10.20;100.00
11124;BME280;5616;42.692;23.312;2023-03-22T01:04:54;94764.34;;;10.13;100.00
11124;BME280;5616;42.692;23.312;2023-03-22T01:07:22;94768.31;;;10.16;100.00
11124;BME280;5616;42.692;23.312;2023-03-22T01:09:49;94763.25;;;10.08;99.92
11124;BME280;5616;42.692;23.312;2023-03-22T01:12:17;94756.50;;;10.07;100.00
11124;BME280;5616;42.692;23.312;2023-03-22T01:14:44;94755.88;;;10.05;100.00
11124;BME280;5616;42.692;23.312;2023-03-22T01:17:11;94758.44;;;9.98;100.00
11124;BME280;5616;42.692;23.312;2023-03-22T01:19:39;94753.78;;;9.94;100.00
11124;BME280;5616;42.692;23.312;2023-03-22T01:22:06;94755.97;;;9.90;100.00
11124;BME280;5616;42.692;23.312;2023-03-22T01:24:34;94756.56;;;9.92;100.00
11124;BME280;5616;42.692;23.312;2023-03-22T01:27:01;94754.00;;;9.92;100.00
11124;BME280;5616;42.692;23.312;2023-03-22T01:29:28;94749.28;;;9.74;100.00
11124;BME280;5616;42.692;23.312;2023-03-22T01:31:55;94749.88;;;9.76;100.00
11124;BME280;5616;42.692;23.312;2023-03-22T01:34:22;94743.31;;;9.74;100.00
11124;BME280;5616;42.692;23.312;2023-03-22T01:36:50;94746.69;;;9.74;100.00
11124;BME280;5616;42.692;23.312;2023-03-22T01:39:18;94742.75;;;9.78;100.00
11124;BME280;5616;42.692;23.312;2023-03-22T01:41:47;94737.28;;;9.67;100.00
11124;BME280;5616;42.692;23.312;2023-03-22T01:44:18;94748.13;;;9.62;100.00
11124;BME280;5616;42.692;23.312;2023-03-22T01:46:46;94743.94;;;9.61;100.00
11124;BME280;5616;42.692;23.312;2023-03-22T01:49:16;94737.53;;;9.51;100.00
11124;BME280;5616;42.692;23.312;2023-03-22T01:51:45;94739.97;;;9.59;100.00
11124;BME280;5616;42.692;23.312;2023-03-22T01:54:38;94740.84;;;9.66;100.00
11124;BME280;5616;42.692;23.312;2023-03-22T01:57:21;94732.56;;;9.70;100.00
11124;BME280;5616;42.692;23.312;2023-03-22T01:59:48;94743.59;;;9.64;100.00
11124;BME280;5616;42.692;23.312;2023-03-22T02:02:51;94740.84;;;9.66;100.00
11124;BME280;5616;42.692;23.312;2023-03-22T02:05:28;94735.69;;;9.66;100.00
11124;BME280;5616;42.692;23.312;2023-03-22T02:07:58;94743.44;;;9.66;100.00
11124;BME280;5616;42.692;23.312;2023-03-22T02:10:31;94741.00;;;9.64;100.00
11124;BME280;5616;42.692;23.312;2023-03-22T02:13:17;94742.50;;;9.52;100.00
11124;BME280;5616;42.692;23.312;2023-03-22T02:16:11;94740.66;;;9.67;100.00
11124;BME280;5616;42.692;23.312;2023-03-22T02:19:06;94740.16;;;9.78;100.00
11124;BME280;5616;42.692;23.312;2023-03-22T02:22:06;94733.38;;;9.92;100.00
11124;BME280;5616;42.692;23.312;2023-03-22T02:27:52;94736.38;;;9.74;100.00
11124;BME280;5616;42.692;23.312;2023-03-22T02:30:44;94750.00;;;9.68;100.00
11124;BME280;5616;42.692;23.312;2023-03-22T02:33:34;94746.38;;;9.63;100.00
11124;BME280;5616;42.692;23.312;2023-03-22T02:36:32;94746.41;;;9.69;100.00
11124;BME280;5616;42.692;23.312;2023-03-22T02:39:17;94745.19;;;9.65;100.00
11124;BME280;5616;42.692;23.312;2023-03-22T02:42:04;94751.56;;;9.69;100.00
11124;BME280;5616;42.692;23.312;2023-03-22T02:44:40;94750.03;;;9.75;100.00
11124;BME280;5616;42.692;23.312;2023-03-22T02:47:15;94754.53;;;9.66;100.00
11124;BME280;5616;42.692;23.312;2023-03-22T02:49:51;94767.44;;;9.66;100.00
11124;BME280;5616;42.692;23.312;2023-03-22T02:52:26;94772.13;;;9.63;100.00
11124;BME280;5616;42.692;23.312;2023-03-22T02:55:02;94758.81;;;9.59;100.00
11124;BME280;5616;42.692;23.312;2023-03-22T02:57:37;94766.78;;;9.64;100.00
11124;BME280;5616;42.692;23.312;2023-03-22T03:00:07;94755.00;;;9.55;100.00
11124;BME280;5616;42.692;23.312;2023-03-22T03:02:38;94756.47;;;9.64;100.00
11124;BME280;5616;42.692;23.312;2023-03-22T03:05:08;94768.41;;;9.65;100.00
11124;BME280;5616;42.692;23.312;2023-03-22T03:07:37;94759.75;;;9.73;100.00
11124;BME280;5616;42.692;23.312;2023-03-22T03:10:08;94760.59;;;9.80;100.00
11124;BME280;5616;42.692;23.312;2023-03-22T03:12:38;94761.47;;;9.66;100.00
11124;BME280;5616;42.692;23.312;2023-03-22T03:15:11;94757.88;;;9.67;100.00
11124;BME280;5616;42.692;23.312;2023-03-22T03:17:52;94765.75;;;9.59;100.00
11124;BME280;5616;42.692;23.312;2023-03-22T03:20:27;94763.69;;;9.69;100.00
11124;BME280;5616;42.692;23.312;2023-03-22T03:23:05;94760.31;;;9.68;100.00
11124;BME280;5616;42.692;23.312;2023-03-22T03:25:44;94767.56;;;9.79;100.00
11124;BME280;5616;42.692;23.312;2023-03-22T03:28:16;94766.00;;;9.85;100.00
11124;BME280;5616;42.692;23.312;2023-03-22T03:30:56;94769.38;;;9.85;100.00
11124;BME280;5616;42.692;23.312;2023-03-22T03:33:26;94768.31;;;9.95;100.00
11124;BME280;5616;42.692;23.312;2023-03-22T03:35:59;94763.63;;;9.83;100.00
11124;BME280;5616;42.692;23.312;2023-03-22T03:38:30;94764.00;;;9.80;100.00
11124;BME280;5616;42.692;23.312;2023-03-22T03:41:03;94773.22;;;9.90;100.00
11124;BME280;5616;42.692;23.312;2023-03-22T03:43:33;94776.31;;;9.85;100.00
11124;BME280;5616;42.692;23.312;2023-03-22T03:46:02;94775.19;;;9.88;100.00
11124;BME280;5616;42.692;23.312;2023-03-22T03:48:30;94781.44;;;9.78;100.00
11124;BME280;5616;42.692;23.312;2023-03-22T03:50:59;94779.56;;;9.72;100.00
11124;BME280;5616;42.692;23.312;2023-03-22T03:53:27;94781.97;;;9.74;100.00
11124;BME280;5616;42.692;23.312;2023-03-22T03:55:54;94776.03;;;9.73;100.00
11124;BME280;5616;42.692;23.312;2023-03-22T03:58:23;94789.84;;;9.51;100.00
11124;BME280;5616;42.692;23.312;2023-03-22T04:00:50;94786.09;;;9.54;100.00
11124;BME280;5616;42.692;23.312;2023-03-22T04:03:33;94789.50;;;9.54;100.00
11124;BME280;5616;42.692;23.312;2023-03-22T04:06:20;94789.94;;;9.58;100.00
11124;BME280;5616;42.692;23.312;2023-03-22T04:08:52;94792.03;;;9.69;100.00
11124;BME280;5616;42.692;23.312;2023-03-22T04:11:24;94795.03;;;9.72;100.00
11124;BME280;5616;42.692;23.312;2023-03-22T04:13:57;94793.63;;;9.70;100.00
11124;BME280;5616;42.692;23.312;2023-03-22T04:16:24;94798.84;;;9.55;100.00
11124;BME280;5616;42.692;23.312;2023-03-22T04:18:51;94797.31;;;9.46;100.00
11124;BME280;5616;42.692;23.312;2023-03-22T04:21:18;94797.13;;;9.62;100.00
11124;BME280;5616;42.692;23.312;2023-03-22T04:23:53;94793.72;;;9.76;100.00
11124;BME280;5616;42.692;23.312;2023-03-22T04:26:20;94791.19;;;9.83;100.00
11124;BME280;5616;42.692;23.312;2023-03-22T04:29:12;94789.06;;;9.87;100.00
11124;BME280;5616;42.692;23.312;2023-03-22T04:31:43;94800.69;;;9.82;100.00
11124;BME280;5616;42.692;23.312;2023-03-22T04:34:33;94800.09;;;9.80;100.00
11124;BME280;5616;42.692;23.312;2023-03-22T04:37:02;94807.53;;;9.90;100.00
11124;BME280;5616;42.692;23.312;2023-03-22T04:39:31;94808.00;;;9.79;100.00
11124;BME280;5616;42.692;23.312;2023-03-22T04:42:16;94805.34;;;9.72;100.00
11124;BME280;5616;42.692;23.312;2023-03-22T04:44:45;94801.59;;;9.75;100.00
11124;BME280;5616;42.692;23.312;2023-03-22T04:47:12;94808.22;;;9.63;100.00
11124;BME280;5616;42.692;23.312;2023-03-22T04:49:39;94808.06;;;9.50;100.00
11124;BME280;5616;42.692;23.312;2023-03-22T04:52:06;94809.13;;;9.55;100.00
11124;BME280;5616;42.692;23.312;2023-03-22T04:54:35;94812.97;;;9.45;100.00
11124;BME280;5616;42.692;23.312;2023-03-22T04:57:02;94811.97;;;9.46;100.00
11124;BME280;5616;42.692;23.312;2023-03-22T04:59:35;94814.41;;;9.47;100.00
11124;BME280;5616;42.692;23.312;2023-03-22T05:02:03;94820.25;;;9.56;100.00
11124;BME280;5616;42.692;23.312;2023-03-22T05:04:37;94818.69;;;9.61;100.00
11124;BME280;5616;42.692;23.312;2023-03-22T05:07:12;94819.50;;;9.62;100.00
11124;BME280;5616;42.692;23.312;2023-03-22T05:09:49;94823.75;;;9.69;100.00
11124;BME280;5616;42.692;23.312;2023-03-22T05:12:16;94828.44;;;9.80;100.00
11124;BME280;5616;42.692;23.312;2023-03-22T05:15:07;94821.56;;;9.66;100.00
11124;BME280;5616;42.692;23.312;2023-03-22T05:17:38;94829.34;;;9.73;100.00
11124;BME280;5616;42.692;23.312;2023-03-22T05:20:05;94826.09;;;9.64;100.00
11124;BME280;5616;42.692;23.312;2023-03-22T05:22:35;94838.50;;;9.75;99.97
11124;BME280;5616;42.692;23.312;2023-03-22T05:25:06;94842.28;;;9.58;99.53
11124;BME280;5616;42.692;23.312;2023-03-22T05:27:33;94840.31;;;9.60;100.00
11124;BME280;5616;42.692;23.312;2023-03-22T05:30:22;94843.16;;;9.65;100.00
11124;BME280;5616;42.692;23.312;2023-03-22T05:33:01;94842.44;;;9.71;100.00
11124;BME280;5616;42.692;23.312;2023-03-22T05:35:30;94852.41;;;9.74;100.00
11124;BME280;5616;42.692;23.312;2023-03-22T05:38:00;94842.97;;;9.67;100.00
11124;BME280;5616;42.692;23.312;2023-03-22T05:40:29;94846.97;;;9.69;100.00
11124;BME280;5616;42.692;23.312;2023-03-22T05:42:56;94847.97;;;9.68;100.00
11124;BME280;5616;42.692;23.312;2023-03-22T05:45:25;94848.22;;;9.59;100.00
11124;BME280;5616;42.692;23.312;2023-03-22T05:48:26;94849.53;;;9.69;100.00
11124;BME280;5616;42.692;23.312;2023-03-22T05:50:53;94848.75;;;9.69;100.00
11124;BME280;5616;42.692;23.312;2023-03-22T05:53:20;94846.97;;;9.69;100.00
11124;BME280;5616;42.692;23.312;2023-03-22T05:55:50;94859.50;;;9.72;100.00
11124;BME280;5616;42.692;23.312;2023-03-22T05:58:18;94861.16;;;9.80;100.00
11124;BME280;5616;42.692;23.312;2023-03-22T06:00:48;94862.13;;;9.94;99.26
11124;BME280;5616;42.692;23.312;2023-03-22T06:03:18;94863.00;;;10.01;98.08
11124;BME280;5616;42.692;23.312;2023-03-22T06:05:54;94861.94;;;9.95;98.78
11124;BME280;5616;42.692;23.312;2023-03-22T06:08:32;94863.63;;;10.03;97.63
11124;BME280;5616;42.692;23.312;2023-03-22T06:10:59;94871.97;;;10.05;96.84
11124;BME280;5616;42.692;23.312;2023-03-22T06:13:26;94868.13;;;10.15;96.90
11124;BME280;5616;42.692;23.312;2023-03-22T06:15:53;94868.59;;;10.19;97.08
11124;BME280;5616;42.692;23.312;2023-03-22T06:18:23;94873.38;;;10.22;97.38
11124;BME280;5616;42.692;23.312;2023-03-22T06:20:59;94873.50;;;10.14;96.99
11124;BME280;5616;42.692;23.312;2023-03-22T06:23:26;94874.19;;;10.08;96.31
11124;BME280;5616;42.692;23.312;2023-03-22T06:25:53;94875.06;;;10.15;96.65
11124;BME280;5616;42.692;23.312;2023-03-22T06:28:20;94884.31;;;10.24;95.45
11124;BME280;5616;42.692;23.312;2023-03-22T06:30:49;94874.59;;;10.26;95.59
11124;BME280;5616;42.692;23.312;2023-03-22T06:33:26;94880.72;;;10.25;95.64
11124;BME280;5616;42.692;23.312;2023-03-22T06:36:08;94887.19;;;10.00;96.70
11124;BME280;5616;42.692;23.312;2023-03-22T06:38:46;94889.31;;;10.11;97.59
11124;BME280;5616;42.692;23.312;2023-03-22T06:41:13;94887.97;;;10.15;97.44
11124;BME280;5616;42.692;23.312;2023-03-22T06:43:39;94891.97;;;10.17;96.87
11124;BME280;5616;42.692;23.312;2023-03-22T06:46:20;94893.16;;;10.36;96.63
11124;BME280;5616;42.692;23.312;2023-03-22T06:48:55;94892.34;;;10.35;97.30
11124;BME280;5616;42.692;23.312;2023-03-22T06:51:24;94899.13;;;10.36;96.73
11124;BME280;5616;42.692;23.312;2023-03-22T06:53:50;94884.56;;;10.50;96.79
11124;BME280;5616;42.692;23.312;2023-03-22T06:56:17;94900.78;;;10.65;96.48
11124;BME280;5616;42.692;23.312;2023-03-22T06:58:48;94889.38;;;10.81;95.44
11124;BME280;5616;42.692;23.312;2023-03-22T07:01:16;94896.41;;;10.87;94.78
11124;BME280;5616;42.692;23.312;2023-03-22T07:03:43;94897.06;;;10.95;95.12
11124;BME280;5616;42.692;23.312;2023-03-22T07:06:14;94896.06;;;10.96;95.61
11124;BME280;5616;42.692;23.312;2023-03-22T07:08:46;94910.31;;;11.14;94.29
11124;BME280;5616;42.692;23.312;2023-03-22T07:11:18;94911.09;;;11.14;93.44
11124;BME280;5616;42.692;23.312;2023-03-22T07:13:51;94901.47;;;11.29;92.70
11124;BME280;5616;42.692;23.312;2023-03-22T07:16:20;94906.53;;;11.44;91.02
11124;BME280;5616;42.692;23.312;2023-03-22T07:18:51;94913.75;;;11.55;90.67
11124;BME280;5616;42.692;23.312;2023-03-22T07:21:18;94911.75;;;11.50;90.85
11124;BME280;5616;42.692;23.312;2023-03-22T07:23:52;94917.63;;;11.38;90.73
11124;BME280;5616;42.692;23.312;2023-03-22T07:26:23;94914.25;;;11.10;91.51
11124;BME280;5616;42.692;23.312;2023-03-22T07:28:52;94913.19;;;10.97;92.18
11124;BME280;5616;42.692;23.312;2023-03-22T07:31:25;94927.78;;;11.12;92.66
11124;BME280;5616;42.692;23.312;2023-03-22T07:33:57;94923.88;;;10.94;92.17
11124;BME280;5616;42.692;23.312;2023-03-22T07:36:27;94928.72;;;11.04;92.37
11124;BME280;5616;42.692;23.312;2023-03-22T07:38:55;94927.88;;;10.97;93.04
11124;BME280;5616;42.692;23.312;2023-03-22T07:41:34;94931.44;;;10.96;93.38
11124;BME280;5616;42.692;23.312;2023-03-22T07:44:20;94927.25;;;10.95;93.77
11124;BME280;5616;42.692;23.312;2023-03-22T07:47:10;94934.00;;;10.96;93.51
11124;BME280;5616;42.692;23.312;2023-03-22T07:49:48;94938.06;;;11.05;92.91
11124;BME280;5616;42.692;23.312;2023-03-22T07:52:24;94938.38;;;11.17;91.25
11124;BME280;5616;42.692;23.312;2023-03-22T07:54:52;94934.88;;;11.03;91.93
11124;BME280;5616;42.692;23.312;2023-03-22T07:57:18;94941.66;;;10.83;92.60
11124;BME280;5616;42.692;23.312;2023-03-22T07:59:52;94944.19;;;10.97;92.67
11124;BME280;5616;42.692;23.312;2023-03-22T08:02:19;94941.75;;;10.96;93.51
11124;BME280;5616;42.692;23.312;2023-03-22T08:04:49;94941.25;;;11.07;93.34
11124;BME280;5616;42.692;23.312;2023-03-22T08:07:38;94942.81;;;11.01;92.82
11124;BME280;5616;42.692;23.312;2023-03-22T08:10:07;94943.97;;;10.99;91.90
11124;BME280;5616;42.692;23.312;2023-03-22T08:12:34;94946.63;;;11.05;91.69
11124;BME280;5616;42.692;23.312;2023-03-22T08:15:16;94943.16;;;10.98;92.16
11124;BME280;5616;42.692;23.312;2023-03-22T08:17:43;94943.44;;;11.03;91.84
11124;BME280;5616;42.692;23.312;2023-03-22T08:20:16;94944.91;;;10.91;92.77
11124;BME280;5616;42.692;23.312;2023-03-22T08:22:49;94940.47;;;10.85;92.77
11124;BME280;5616;42.692;23.312;2023-03-22T08:25:26;94943.81;;;10.79;92.92
11124;BME280;5616;42.692;23.312;2023-03-22T08:28:02;94947.06;;;10.88;92.38
11124;BME280;5616;42.692;23.312;2023-03-22T08:30:29;94951.06;;;10.90;93.73
11124;BME280;5616;42.692;23.312;2023-03-22T08:32:55;94955.13;;;10.99;93.35
11124;BME280;5616;42.692;23.312;2023-03-22T08:35:22;94951.50;;;10.94;93.30
11124;BME280;5616;42.692;23.312;2023-03-22T08:37:52;94960.41;;;10.91;93.76
11124;BME280;5616;42.692;23.312;2023-03-22T08:40:20;94950.88;;;10.92;93.52
11124;BME280;5616;42.692;23.312;2023-03-22T08:42:56;94954.75;;;10.81;93.99
11124;BME280;5616;42.692;23.312;2023-03-22T08:45:23;94955.59;;;10.67;93.29
11124;BME280;5616;42.692;23.312;2023-03-22T08:47:57;94963.47;;;10.80;93.70
11124;BME280;5616;42.692;23.312;2023-03-22T08:50:25;94957.38;;;10.88;93.23
11124;BME280;5616;42.692;23.312;2023-03-22T08:53:06;94966.25;;;10.79;93.12
11124;BME280;5616;42.692;23.312;2023-03-22T08:55:34;94960.59;;;10.90;93.22
11124;BME280;5616;42.692;23.312;2023-03-22T08:58:11;94966.50;;;11.05;92.73
11124;BME280;5616;42.692;23.312;2023-03-22T09:00:59;94942.09;;;10.86;93.43
11124;BME280;5616;42.692;23.312;2023-03-22T09:03:35;94963.59;;;10.93;94.59
11124;BME280;5616;42.692;23.312;2023-03-22T09:06:01;94963.59;;;10.93;95.06
11124;BME280;5616;42.692;23.312;2023-03-22T09:08:33;94965.53;;;11.06;94.36
11124;BME280;5616;42.692;23.312;2023-03-22T09:11:07;94968.75;;;11.15;94.46
11124;BME280;5616;42.692;23.312;2023-03-22T09:13:36;94969.38;;;11.17;92.77
11124;BME280;5616;42.692;23.312;2023-03-22T09:16:03;94979.28;;;11.13;93.52
11124;BME280;5616;42.692;23.312;2023-03-22T09:18:32;94973.75;;;11.16;93.52
11124;BME280;5616;42.692;23.312;2023-03-22T09:21:02;94972.53;;;11.40;94.68
11124;BME280;5616;42.692;23.312;2023-03-22T09:23:59;94974.38;;;11.74;91.33
11124;BME280;5616;42.692;23.312;2023-03-22T09:26:36;94978.41;;;11.83;90.10
11124;BME280;5616;42.692;23.312;2023-03-22T09:29:06;94977.25;;;11.85;89.30
11124;BME280;5616;42.692;23.312;2023-03-22T09:31:32;94978.22;;;11.84;89.19
11124;BME280;5616;42.692;23.312;2023-03-22T09:34:13;94975.44;;;11.86;89.12
11124;BME280;5616;42.692;23.312;2023-03-22T09:36:40;94977.47;;;11.90;89.09
11124;BME280;5616;42.692;23.312;2023-03-22T09:39:08;94970.31;;;11.92;89.19
11124;BME280;5616;42.692;23.312;2023-03-22T09:41:37;94974.69;;;11.64;90.08
11124;BME280;5616;42.692;23.312;2023-03-22T09:44:09;94978.91;;;11.44;91.23
11124;BME280;5616;42.692;23.312;2023-03-22T09:46:40;94970.50;;;11.35;92.35
11124;BME280;5616;42.692;23.312;2023-03-22T09:49:12;94977.03;;;11.31;92.68
11124;BME280;5616;42.692;23.312;2023-03-22T09:51:41;94975.25;;;11.32;93.51
11124;BME280;5616;42.692;23.312;2023-03-22T09:54:11;94973.97;;;11.21;93.02
11124;BME280;5616;42.692;23.312;2023-03-22T09:56:39;94972.31;;;11.35;92.92
11124;BME280;5616;42.692;23.312;2023-03-22T09:59:13;94971.38;;;11.49;92.20
11124;BME280;5616;42.692;23.312;2023-03-22T10:01:45;94977.00;;;11.52;92.42
11124;BME280;5616;42.692;23.312;2023-03-22T10:04:26;94986.41;;;11.60;91.93
11124;BME280;5616;42.692;23.312;2023-03-22T10:07:02;94985.31;;;11.69;92.46
11124;BME280;5616;42.692;23.312;2023-03-22T10:09:35;94979.88;;;11.64;92.40
11124;BME280;5616;42.692;23.312;2023-03-22T10:12:10;94986.88;;;11.70;91.73
11124;BME280;5616;42.692;23.312;2023-03-22T10:14:47;94988.66;;;11.70;91.04
11124;BME280;5616;42.692;23.312;2023-03-22T10:17:18;94985.31;;;11.69;90.68
11124;BME280;5616;42.692;23.312;2023-03-22T10:19:52;94988.50;;;11.71;90.08
11124;BME280;5616;42.692;23.312;2023-03-22T10:22:24;94990.59;;;11.61;89.75
11124;BME280;5616;42.692;23.312;2023-03-22T10:24:54;94990.25;;;11.43;91.11
11124;BME280;5616;42.692;23.312;2023-03-22T10:27:22;94992.22;;;11.41;90.74
11124;BME280;5616;42.692;23.312;2023-03-22T10:29:54;94990.63;;;11.40;90.34
11124;BME280;5616;42.692;23.312;2023-03-22T10:32:29;94996.31;;;11.56;90.52
11124;BME280;5616;42.692;23.312;2023-03-22T10:34:57;94990.63;;;11.67;90.44
11124;BME280;5616;42.692;23.312;2023-03-22T10:37:30;94990.28;;;11.71;90.50
11124;BME280;5616;42.692;23.312;2023-03-22T10:40:00;94985.97;;;11.84;90.32
11124;BME280;5616;42.692;23.312;2023-03-22T10:42:34;94976.06;;;11.88;90.98
11124;BME280;5616;42.692;23.312;2023-03-22T10:45:06;94984.94;;;11.79;89.55
11124;BME280;5616;42.692;23.312;2023-03-22T10:47:37;94978.41;;;11.55;88.20
11124;BME280;5616;42.692;23.312;2023-03-22T10:50:10;94965.25;;;11.50;87.80
11124;BME280;5616;42.692;23.312;2023-03-22T10:52:42;94980.13;;;11.69;88.85
11124;BME280;5616;42.692;23.312;2023-03-22T10:55:13;94983.50;;;11.48;88.14
11124;BME280;5616;42.692;23.312;2023-03-22T10:57:42;94982.78;;;11.54;88.41
11124;BME280;5616;42.692;23.312;2023-03-22T11:00:15;94981.22;;;11.60;89.31
11124;BME280;5616;42.692;23.312;2023-03-22T11:02:45;94983.81;;;11.60;90.37
11124;BME280;5616;42.692;23.312;2023-03-22T11:05:22;94977.66;;;11.61;88.87
11124;BME280;5616;42.692;23.312;2023-03-22T11:07:50;94967.91;;;11.63;88.92
11124;BME280;5616;42.692;23.312;2023-03-22T11:10:20;94980.63;;;11.58;87.87
11124;BME280;5616;42.692;23.312;2023-03-22T11:12:49;94979.63;;;11.59;87.16
11124;BME280;5616;42.692;23.312;2023-03-22T11:15:23;94985.59;;;11.59;87.69
11124;BME280;5616;42.692;23.312;2023-03-22T11:17:53;94982.97;;;11.53;87.54
11124;BME280;5616;42.692;23.312;2023-03-22T11:20:20;94982.97;;;11.53;86.92
11124;BME280;5616;42.692;23.312;2023-03-22T11:22:47;94978.06;;;11.64;85.69
11124;BME280;5616;42.692;23.312;2023-03-22T11:25:16;94973.31;;;11.68;86.54
11124;BME280;5616;42.692;23.312;2023-03-22T11:27:50;94970.66;;;11.55;88.97
11124;BME280;5616;42.692;23.312;2023-03-22T11:30:21;94971.47;;;11.62;87.86
11124;BME280;5616;42.692;23.312;2023-03-22T11:32:48;94973.56;;;11.73;87.46
11124;BME280;5616;42.692;23.312;2023-03-22T11:35:24;94961.47;;;11.52;88.07
11124;BME280;5616;42.692;23.312;2023-03-22T11:37:54;94970.78;;;11.47;89.59
11124;BME280;5616;42.692;23.312;2023-03-22T11:40:23;94963.97;;;11.39;88.30
11124;BME280;5616;42.692;23.312;2023-03-22T11:42:52;94970.41;;;11.50;88.79
11124;BME280;5616;42.692;23.312;2023-03-22T11:45:24;94963.63;;;11.49;90.36
11124;BME280;5616;42.692;23.312;2023-03-22T11:47:52;94966.94;;;11.36;90.50
11124;BME280;5616;42.692;23.312;2023-03-22T11:50:25;94967.75;;;11.37;91.22
11124;BME280;5616;42.692;23.312;2023-03-22T11:52:53;94966.03;;;11.23;91.13
11124;BME280;5616;42.692;23.312;2023-03-22T11:55:21;94963.06;;;11.26;90.49
11124;BME280;5616;42.692;23.312;2023-03-22T11:57:49;94966.63;;;11.25;90.52
11124;BME280;5616;42.692;23.312;2023-03-22T12:00:19;94974.69;;;11.09;90.95
11124;BME280;5616;42.692;23.312;2023-03-22T12:02:53;94967.22;;;11.20;90.30
11124;BME280;5616;42.692;23.312;2023-03-22T12:05:23;94971.53;;;11.41;88.61
11124;BME280;5616;42.692;23.312;2023-03-22T12:07:55;94973.16;;;11.48;89.14
11124;BME280;5616;42.692;23.312;2023-03-22T12:10:28;94973.97;;;11.49;89.60
11124;BME280;5616;42.692;23.312;2023-03-22T12:12:59;94970.59;;;11.48;90.34
11124;BME280;5616;42.692;23.312;2023-03-22T12:15:30;94968.13;;;11.61;90.17
11124;BME280;5616;42.692;23.312;2023-03-22T12:18:04;94958.31;;;11.57;90.38
11124;BME280;5616;42.692;23.312;2023-03-22T12:20:39;94961.88;;;11.77;89.43
11124;BME280;5616;42.692;23.312;2023-03-22T12:23:15;94964.53;;;11.90;88.57
11124;BME280;5616;42.692;23.312;2023-03-22T12:25:46;94961.84;;;12.11;88.83
11124;BME280;5616;42.692;23.312;2023-03-22T12:28:17;94964.88;;;12.28;88.00
11124;BME280;5616;42.692;23.312;2023-03-22T12:30:47;94960.16;;;12.51;87.70
11124;BME280;5616;42.692;23.312;2023-03-22T12:33:20;94965.00;;;12.67;86.79
11124;BME280;5616;42.692;23.312;2023-03-22T12:35:50;94961.03;;;12.78;85.30
11124;BME280;5616;42.692;23.312;2023-03-22T12:38:23;94954.84;;;12.85;82.71
11124;BME280;5616;42.692;23.312;2023-03-22T12:40:53;94951.06;;;12.88;83.36
11124;BME280;5616;42.692;23.312;2023-03-22T12:43:32;94949.28;;;12.88;83.78
11124;BME280;5616;42.692;23.312;2023-03-22T12:46:02;94949.91;;;12.97;82.50
11124;BME280;5616;42.692;23.312;2023-03-22T12:48:37;94954.69;;;13.00;79.65
11124;BME280;5616;42.692;23.312;2023-03-22T12:51:07;94957.28;;;13.00;78.56
11124;BME280;5616;42.692;23.312;2023-03-22T12:53:37;94955.13;;;13.10;77.83
11124;BME280;5616;42.692;23.312;2023-03-22T12:56:09;94955.91;;;13.17;79.10
11124;BME280;5616;42.692;23.312;2023-03-22T12:58:37;94949.94;;;13.23;80.65
11124;BME280;5616;42.692;23.312;2023-03-22T13:01:16;94954.53;;;13.21;77.98
11124;BME280;5616;42.692;23.312;2023-03-22T13:03:48;94951.75;;;13.16;77.93
11124;BME280;5616;42.692;23.312;2023-03-22T13:06:32;94947.50;;;13.02;79.27
11124;BME280;5616;42.692;23.312;2023-03-22T13:09:14;94954.28;;;12.90;79.94
11124;BME280;5616;42.692;23.312;2023-03-22T13:11:43;94955.69;;;12.93;78.76
11124;BME280;5616;42.692;23.312;2023-03-22T13:14:13;94948.28;;;12.83;80.00
11124;BME280;5616;42.692;23.312;2023-03-22T13:16:59;94942.13;;;12.84;82.18
11124;BME280;5616;42.692;23.312;2023-03-22T13:19:33;94940.69;;;12.75;82.35
11124;BME280;5616;42.692;23.312;2023-03-22T13:22:21;94943.06;;;12.70;81.90
11124;BME280;5616;42.692;23.312;2023-03-22T13:25:06;94945.28;;;12.66;81.10
11124;BME280;5616;42.692;23.312;2023-03-22T13:27:39;94945.88;;;12.75;81.96
11124;BME280;5616;42.692;23.312;2023-03-22T13:30:15;94945.69;;;12.83;80.63